sensor_id;sensor_type;location;lat;lon;timestamp;pressure;altitude;pressure_sealevel;temperature;humidity
64602;BME280;68371;42.630;23.192;2023-07-20T00:01:47;92177.59;;;21.74;64.95
64602;BME280;68371;42.630;23.192;2023-07-20T00:04:14;92175.25;;;21.76;65.57
64602;BME280;68371;42.630;23.192;2023-07-20T00:06:41;92175.53;;;21.81;65.31
64602;BME280;68371;42.630;23.192;2023-07-20T00:09:09;92166.41;;;21.79;64.84
64602;BME280;68371;42.630;23.192;2023-07-20T00:11:36;92178.34;;;21.74;64.65
64602;BME280;68371;42.630;23.192;2023-07-20T00:14:04;92166.91;;;21.74;66.30
64602;BME280;68371;42.630;23.192;2023-07-20T00:16:30;92154.75;;;21.69;65.71
64602;BME280;68371;42.630;23.192;2023-07-20T00:18:57;92166.06;;;21.77;65.04
64602;BME280;68371;42.630;23.192;2023-07-20T00:21:25;92161.91;;;21.76;65.55
64602;BME280;68371;42.630;23.192;2023-07-20T00:23:52;92167.25;;;21.76;65.84
64602;BME280;68371;42.630;23.192;2023-07-20T00:26:20;92166.13;;;21.73;65.08
64602;BME280;68371;42.630;23.192;2023-07-20T00:28:50;92173.75;;;21.75;64.66
64602;BME280;68371;42.630;23.192;2023-07-20T00:31:17;92153.25;;;21.68;65.07
64602;BME280;68371;42.630;23.192;2023-07-20T00:33:44;92163.41;;;21.77;65.84
64602;BME280;68371;42.630;23.192;2023-07-20T00:36:11;92158.72;;;21.81;65.71
64602;BME280;68371;42.630;23.192;2023-07-20T00:38:37;92164.69;;;21.89;64.88
64602;BME280;68371;42.630;23.192;2023-07-20T00:41:04;92164.00;;;21.85;65.78
64602;BME280;68371;42.630;23.192;2023-07-20T00:43:32;92161.69;;;21.87;66.01
64602;BME280;68371;42.630;23.192;2023-07-20T00:45:59;92156.81;;;21.81;65.85
64602;BME280;68371;42.630;23.192;2023-07-20T00:48:28;92153.03;;;21.79;66.98
64602;BME280;68371;42.630;23.192;2023-07-20T00:50:55;92143.94;;;21.76;66.59
64602;BME280;68371;42.630;23.192;2023-07-20T00:53:23;92151.41;;;21.85;66.97
64602;BME280;68371;42.630;23.192;2023-07-20T00:55:50;92141.09;;;21.84;66.61
64602;BME280;68371;42.630;23.192;2023-07-20T00:58:16;92140.09;;;21.77;66.60
64602;BME280;68371;42.630;23.192;2023-07-20T01:00:45;92153.78;;;21.79;66.73
64602;BME280;68371;42.630;23.192;2023-07-20T01:03:12;92153.59;;;21.70;66.98
64602;BME280;68371;42.630;23.192;2023-07-20T01:05:43;92142.09;;;21.53;70.80
64602;BME280;68371;42.630;23.192;2023-07-20T01:08:16;92152.81;;;21.50;68.51
64602;BME280;68371;42.630;23.192;2023-07-20T01:10:49;92155.16;;;21.48;67.89
64602;BME280;68371;42.630;23.192;2023-07-20T01:13:17;92152.81;;;21.50;68.33
64602;BME280;68371;42.630;23.192;2023-07-20T01:15:50;92153.41;;;21.37;68.87
64602;BME280;68371;42.630;23.192;2023-07-20T01:18:17;92149.41;;;21.26;69.55
64602;BME280;68371;42.630;23.192;2023-07-20T01:20:44;92152.81;;;21.26;68.87
64602;BME280;68371;42.630;23.192;2023-07-20T01:23:33;92096.94;;;20.92;69.52
64602;BME280;68371;42.630;23.192;2023-07-20T01:29:16;92136.28;;;21.11;70.49
64602;BME280;68371;42.630;23.192;2023-07-20T01:31:47;92142.91;;;21.03;69.64
64602;BME280;68371;42.630;23.192;2023-07-20T01:34:18;92131.63;;;20.92;70.46
64602;BME280;68371;42.630;23.192;2023-07-20T01:36:46;92146.84;;;20.95;70.74
64602;BME280;68371;42.630;23.192;2023-07-20T01:39:14;92140.16;;;20.83;70.92
64602;BME280;68371;42.630;23.192;2023-07-20T01:41:42;92130.47;;;20.69;71.57
64602;BME280;68371;42.630;23.192;2023-07-20T01:44:09;92138.44;;;20.73;71.45
64602;BME280;68371;42.630;23.192;2023-07-20T01:46:36;92134.94;;;20.76;71.28
64602;BME280;68371;42.630;23.192;2023-07-20T01:49:04;92145.72;;;20.69;71.66
64602;BME280;68371;42.630;23.192;2023-07-20T01:51:31;92140.16;;;20.56;72.39
64602;BME280;68371;42.630;23.192;2023-07-20T01:53:57;92145.50;;;20.56;72.37
64602;BME280;68371;42.630;23.192;2023-07-20T01:56:25;92134.88;;;20.52;72.33
64602;BME280;68371;42.630;23.192;2023-07-20T01:58:52;92137.22;;;20.50;72.47
64602;BME280;68371;42.630;23.192;2023-07-20T02:01:19;92133.19;;;20.38;72.46
64602;BME280;68371;42.630;23.192;2023-07-20T02:03:45;92126.03;;;20.32;73.22
64602;BME280;68371;42.630;23.192;2023-07-20T02:06:14;92131.31;;;20.35;73.10
64602;BME280;68371;42.630;23.192;2023-07-20T02:08:40;92137.09;;;20.30;73.33
64602;BME280;68371;42.630;23.192;2023-07-20T02:11:07;92129.50;;;20.29;73.53
64602;BME280;68371;42.630;23.192;2023-07-20T02:13:35;92129.09;;;20.30;73.58
64602;BME280;68371;42.630;23.192;2023-07-20T02:16:02;92123.38;;;20.32;73.76
64602;BME280;68371;42.630;23.192;2023-07-20T02:18:28;92127.66;;;20.26;73.71
64602;BME280;68371;42.630;23.192;2023-07-20T02:20:55;92134.88;;;20.25;74.11
64602;BME280;68371;42.630;23.192;2023-07-20T02:23:23;92132.63;;;20.24;74.12
64602;BME280;68371;42.630;23.192;2023-07-20T02:25:50;92130.09;;;20.13;74.02
64602;BME280;68371;42.630;23.192;2023-07-20T02:28:16;92127.88;;;20.08;74.18
64602;BME280;68371;42.630;23.192;2023-07-20T02:30:43;92127.91;;;20.04;74.35
64602;BME280;68371;42.630;23.192;2023-07-20T02:33:10;92124.94;;;19.98;75.38
64602;BME280;68371;42.630;23.192;2023-07-20T02:35:36;92120.84;;;19.90;75.38
64602;BME280;68371;42.630;23.192;2023-07-20T02:38:03;92126.94;;;19.91;75.31
64602;BME280;68371;42.630;23.192;2023-07-20T02:40:31;92118.66;;;19.85;75.29
64602;BME280;68371;42.630;23.192;2023-07-20T02:42:58;92119.47;;;19.78;74.98
64602;BME280;68371;42.630;23.192;2023-07-20T02:45:25;92109.63;;;19.75;74.71
64602;BME280;68371;42.630;23.192;2023-07-20T02:47:52;92109.66;;;19.68;75.05
64602;BME280;68371;42.630;23.192;2023-07-20T02:50:19;92097.50;;;19.67;75.14
64602;BME280;68371;42.630;23.192;2023-07-20T02:52:45;92098.66;;;19.66;75.08
64602;BME280;68371;42.630;23.192;2023-07-20T02:55:12;92102.47;;;19.65;75.44
64602;BME280;68371;42.630;23.192;2023-07-20T02:57:40;92104.00;;;19.62;76.10
64602;BME280;68371;42.630;23.192;2023-07-20T03:00:07;92097.25;;;19.54;76.35
64602;BME280;68371;42.630;23.192;2023-07-20T03:02:34;92104.53;;;19.50;76.13
64602;BME280;68371;42.630;23.192;2023-07-20T03:05:01;92107.63;;;19.49;76.17
64602;BME280;68371;42.630;23.192;2023-07-20T03:07:31;92109.91;;;19.47;75.91
64602;BME280;68371;42.630;23.192;2023-07-20T03:09:58;92097.75;;;19.46;76.80
64602;BME280;68371;42.630;23.192;2023-07-20T03:12:24;92097.84;;;19.38;77.01
64602;BME280;68371;42.630;23.192;2023-07-20T03:14:52;92105.84;;;19.35;76.97
64602;BME280;68371;42.630;23.192;2023-07-20T03:17:19;92111.97;;;19.32;77.07
64602;BME280;68371;42.630;23.192;2023-07-20T03:19:46;92113.16;;;19.27;76.79
64602;BME280;68371;42.630;23.192;2023-07-20T03:22:13;92109.75;;;19.27;77.24
64602;BME280;68371;42.630;23.192;2023-07-20T03:24:39;92117.00;;;19.26;77.23
64602;BME280;68371;42.630;23.192;2023-07-20T03:27:06;92111.34;;;19.20;77.29
64602;BME280;68371;42.630;23.192;2023-07-20T03:29:33;92118.88;;;19.26;76.17
64602;BME280;68371;42.630;23.192;2023-07-20T03:32:01;92120.06;;;19.21;76.78
64602;BME280;68371;42.630;23.192;2023-07-20T03:34:28;92120.47;;;19.16;77.52
64602;BME280;68371;42.630;23.192;2023-07-20T03:36:55;92119.72;;;19.15;76.68
64602;BME280;68371;42.630;23.192;2023-07-20T03:39:22;92114.84;;;19.10;77.08
64602;BME280;68371;42.630;23.192;2023-07-20T03:41:49;92117.81;;;19.16;76.89
64602;BME280;68371;42.630;23.192;2023-07-20T03:44:15;92118.25;;;19.11;77.07
64602;BME280;68371;42.630;23.192;2023-07-20T03:46:42;92114.06;;;19.10;77.67
64602;BME280;68371;42.630;23.192;2023-07-20T03:49:10;92123.97;;;19.09;77.52
64602;BME280;68371;42.630;23.192;2023-07-20T03:51:37;92122.78;;;19.14;77.02
64602;BME280;68371;42.630;23.192;2023-07-20T03:54:04;92125.88;;;19.12;77.81
64602;BME280;68371;42.630;23.192;2023-07-20T03:56:30;92128.53;;;19.12;77.75
64602;BME280;68371;42.630;23.192;2023-07-20T03:59:00;92138.44;;;19.08;77.86
64602;BME280;68371;42.630;23.192;2023-07-20T04:01:27;92139.59;;;19.07;78.01
64602;BME280;68371;42.630;23.192;2023-07-20T04:03:54;92131.56;;;19.11;77.23
64602;BME280;68371;42.630;23.192;2023-07-20T04:06:22;92131.31;;;18.98;78.79
64602;BME280;68371;42.630;23.192;2023-07-20T04:08:48;92120.31;;;18.96;78.00
64602;BME280;68371;42.630;23.192;2023-07-20T04:11:15;92122.53;;;19.01;77.28
64602;BME280;68371;42.630;23.192;2023-07-20T04:13:42;92124.06;;;19.02;77.05
64602;BME280;68371;42.630;23.192;2023-07-20T04:16:08;92108.47;;;19.00;77.40
64602;BME280;68371;42.630;23.192;2023-07-20T04:18:35;92104.28;;;18.99;77.99
64602;BME280;68371;42.630;23.192;2023-07-20T04:21:02;92101.22;;;19.05;78.87
64602;BME280;68371;42.630;23.192;2023-07-20T04:23:30;92102.69;;;19.09;78.77
64602;BME280;68371;42.630;23.192;2023-07-20T04:25:56;92107.59;;;19.14;79.04
64602;BME280;68371;42.630;23.192;2023-07-20T04:28:23;92100.31;;;19.18;77.81
64602;BME280;68371;42.630;23.192;2023-07-20T04:30:50;92094.19;;;19.21;78.39
64602;BME280;68371;42.630;23.192;2023-07-20T04:33:17;92091.47;;;19.29;78.21
64602;BME280;68371;42.630;23.192;2023-07-20T04:35:51;92094.84;;;19.33;77.66
64602;BME280;68371;42.630;23.192;2023-07-20T04:38:19;92093.66;;;19.37;78.53
64602;BME280;68371;42.630;23.192;2023-07-20T04:40:47;92079.50;;;19.44;77.83
64602;BME280;68371;42.630;23.192;2023-07-20T04:43:15;92074.88;;;19.48;77.75
64602;BME280;68371;42.630;23.192;2023-07-20T04:45:42;92091.91;;;19.58;76.72
64602;BME280;68371;42.630;23.192;2023-07-20T04:48:11;92085.34;;;19.62;77.29
64602;BME280;68371;42.630;23.192;2023-07-20T04:50:38;92084.97;;;19.64;77.22
64602;BME280;68371;42.630;23.192;2023-07-20T04:53:06;92086.41;;;19.72;77.05
64602;BME280;68371;42.630;23.192;2023-07-20T04:55:33;92093.59;;;19.79;76.54
64602;BME280;68371;42.630;23.192;2023-07-20T04:58:02;92092.00;;;19.85;76.46
64602;BME280;68371;42.630;23.192;2023-07-20T05:00:28;92088.50;;;19.88;75.89
64602;BME280;68371;42.630;23.192;2023-07-20T05:02:55;92082.41;;;19.91;75.35
64602;BME280;68371;42.630;23.192;2023-07-20T05:05:22;92088.69;;;20.05;76.07
64602;BME280;68371;42.630;23.192;2023-07-20T05:07:48;92094.31;;;20.10;75.92
64602;BME280;68371;42.630;23.192;2023-07-20T05:10:16;92084.34;;;20.14;76.31
64602;BME280;68371;42.630;23.192;2023-07-20T05:12:42;92096.44;;;20.23;74.36
64602;BME280;68371;42.630;23.192;2023-07-20T05:15:11;92100.16;;;20.29;75.44
64602;BME280;68371;42.630;23.192;2023-07-20T05:17:37;92096.28;;;20.33;74.89
64602;BME280;68371;42.630;23.192;2023-07-20T05:20:07;92084.69;;;20.44;74.28
64602;BME280;68371;42.630;23.192;2023-07-20T05:22:37;92098.34;;;20.49;74.01
64602;BME280;68371;42.630;23.192;2023-07-20T05:25:07;92086.28;;;20.68;71.81
64602;BME280;68371;42.630;23.192;2023-07-20T05:27:36;92097.75;;;20.65;72.56
64602;BME280;68371;42.630;23.192;2023-07-20T05:30:04;92105.41;;;20.63;73.67
64602;BME280;68371;42.630;23.192;2023-07-20T05:32:33;92107.84;;;20.77;74.93
64602;BME280;68371;42.630;23.192;2023-07-20T05:34:59;92112.16;;;20.95;73.96
64602;BME280;68371;42.630;23.192;2023-07-20T05:37:26;92114.38;;;20.96;72.92
64602;BME280;68371;42.630;23.192;2023-07-20T05:39:53;92113.47;;;21.07;74.16
64602;BME280;68371;42.630;23.192;2023-07-20T05:42:19;92120.59;;;21.13;74.35
64602;BME280;68371;42.630;23.192;2023-07-20T05:44:46;92118.84;;;21.27;74.38
64602;BME280;68371;42.630;23.192;2023-07-20T05:47:15;92119.41;;;21.38;73.74
64602;BME280;68371;42.630;23.192;2023-07-20T05:49:43;92131.91;;;21.45;71.26
64602;BME280;68371;42.630;23.192;2023-07-20T05:52:09;92113.56;;;21.47;70.47
64602;BME280;68371;42.630;23.192;2023-07-20T05:54:36;92115.28;;;21.57;70.78
64602;BME280;68371;42.630;23.192;2023-07-20T05:57:03;92121.66;;;21.63;65.69
64602;BME280;68371;42.630;23.192;2023-07-20T05:59:30;92108.50;;;21.72;65.48
64602;BME280;68371;42.630;23.192;2023-07-20T06:01:57;92114.13;;;21.78;67.43
64602;BME280;68371;42.630;23.192;2023-07-20T06:04:23;92111.16;;;21.92;68.35
64602;BME280;68371;42.630;23.192;2023-07-20T06:06:51;92122.81;;;22.02;69.52
64602;BME280;68371;42.630;23.192;2023-07-20T06:09:18;92110.13;;;22.06;68.34
64602;BME280;68371;42.630;23.192;2023-07-20T06:11:45;92113.81;;;22.12;68.95
64602;BME280;68371;42.630;23.192;2023-07-20T06:14:12;92111.69;;;22.24;66.89
64602;BME280;68371;42.630;23.192;2023-07-20T06:16:39;92114.53;;;22.33;65.17
64602;BME280;68371;42.630;23.192;2023-07-20T06:19:06;92108.13;;;22.47;64.83
64602;BME280;68371;42.630;23.192;2023-07-20T06:21:32;92101.94;;;22.50;64.23
64602;BME280;68371;42.630;23.192;2023-07-20T06:24:00;92106.22;;;22.64;65.01
64602;BME280;68371;42.630;23.192;2023-07-20T06:26:27;92097.25;;;22.70;64.71
64602;BME280;68371;42.630;23.192;2023-07-20T06:28:55;92095.84;;;22.82;64.51
64602;BME280;68371;42.630;23.192;2023-07-20T06:31:22;92096.25;;;22.80;62.13
64602;BME280;68371;42.630;23.192;2023-07-20T06:33:48;92098.50;;;22.98;61.75
64602;BME280;68371;42.630;23.192;2023-07-20T06:36:17;92100.25;;;23.05;63.67
64602;BME280;68371;42.630;23.192;2023-07-20T06:38:44;92095.72;;;23.18;63.52
64602;BME280;68371;42.630;23.192;2023-07-20T06:41:12;92096.13;;;23.33;63.94
64602;BME280;68371;42.630;23.192;2023-07-20T06:43:39;92096.06;;;23.50;62.28
64602;BME280;68371;42.630;23.192;2023-07-20T06:46:06;92089.31;;;23.74;59.68
64602;BME280;68371;42.630;23.192;2023-07-20T06:48:32;92088.47;;;23.77;61.56
64602;BME280;68371;42.630;23.192;2023-07-20T06:50:59;92096.25;;;24.01;60.35
64602;BME280;68371;42.630;23.192;2023-07-20T06:53:26;92104.84;;;24.09;62.03
64602;BME280;68371;42.630;23.192;2023-07-20T06:55:52;92109.91;;;24.19;60.93
64602;BME280;68371;42.630;23.192;2023-07-20T06:58:20;92118.06;;;24.29;58.94
64602;BME280;68371;42.630;23.192;2023-07-20T07:00:47;92115.06;;;24.39;61.58
64602;BME280;68371;42.630;23.192;2023-07-20T07:03:15;92123.31;;;24.45;62.33
64602;BME280;68371;42.630;23.192;2023-07-20T07:05:43;92131.84;;;24.56;61.38
64602;BME280;68371;42.630;23.192;2023-07-20T07:08:10;92086.28;;;24.27;59.30
64602;BME280;68371;42.630;23.192;2023-07-20T07:10:37;92151.50;;;24.79;62.27
64602;BME280;68371;42.630;23.192;2023-07-20T07:13:04;92144.41;;;24.72;64.34
64602;BME280;68371;42.630;23.192;2023-07-20T07:15:33;92151.91;;;24.77;61.52
64602;BME280;68371;42.630;23.192;2023-07-20T07:18:00;92164.59;;;25.03;61.58
64602;BME280;68371;42.630;23.192;2023-07-20T07:20:28;92172.22;;;25.04;61.36
64602;BME280;68371;42.630;23.192;2023-07-20T07:22:55;92176.50;;;25.14;62.12
64602;BME280;68371;42.630;23.192;2023-07-20T07:25:22;92178.31;;;25.30;60.65
64602;BME280;68371;42.630;23.192;2023-07-20T07:27:49;92172.53;;;25.32;62.17
64602;BME280;68371;42.630;23.192;2023-07-20T07:30:17;92175.19;;;25.45;57.14
64602;BME280;68371;42.630;23.192;2023-07-20T07:32:45;92179.69;;;25.48;56.77
64602;BME280;68371;42.630;23.192;2023-07-20T07:35:12;92170.56;;;25.45;54.39
64602;BME280;68371;42.630;23.192;2023-07-20T07:37:39;92167.75;;;25.49;54.07
64602;BME280;68371;42.630;23.192;2023-07-20T07:40:07;92170.50;;;25.58;57.89
64602;BME280;68371;42.630;23.192;2023-07-20T07:42:34;92167.41;;;25.59;58.01
64602;BME280;68371;42.630;23.192;2023-07-20T07:45:01;92146.25;;;25.71;57.52
64602;BME280;68371;42.630;23.192;2023-07-20T07:47:27;92145.00;;;25.85;57.21
64602;BME280;68371;42.630;23.192;2023-07-20T07:49:55;92132.88;;;25.80;57.38
64602;BME280;68371;42.630;23.192;2023-07-20T07:52:22;92137.78;;;25.94;56.36
64602;BME280;68371;42.630;23.192;2023-07-20T07:54:49;92141.72;;;26.03;55.98
64602;BME280;68371;42.630;23.192;2023-07-20T07:57:16;92127.72;;;26.08;58.90
64602;BME280;68371;42.630;23.192;2023-07-20T07:59:43;92108.66;;;26.24;56.85
64602;BME280;68371;42.630;23.192;2023-07-20T08:02:09;92124.53;;;26.31;53.65
64602;BME280;68371;42.630;23.192;2023-07-20T08:04:36;92148.94;;;26.37;53.66
64602;BME280;68371;42.630;23.192;2023-07-20T08:07:05;92160.88;;;26.27;53.13
64602;BME280;68371;42.630;23.192;2023-07-20T08:09:32;92161.81;;;26.33;53.92
64602;BME280;68371;42.630;23.192;2023-07-20T08:11:59;92171.94;;;26.29;57.86
64602;BME280;68371;42.630;23.192;2023-07-20T08:14:26;92176.00;;;26.33;60.29
64602;BME280;68371;42.630;23.192;2023-07-20T08:16:52;92162.91;;;26.45;61.13
64602;BME280;68371;42.630;23.192;2023-07-20T08:19:20;92175.25;;;26.33;62.16
64602;BME280;68371;42.630;23.192;2023-07-20T08:21:46;92177.84;;;26.36;64.48
64602;BME280;68371;42.630;23.192;2023-07-20T08:24:14;92170.69;;;26.43;62.76
64602;BME280;68371;42.630;23.192;2023-07-20T08:26:41;92157.03;;;26.37;61.20
64602;BME280;68371;42.630;23.192;2023-07-20T08:29:08;92158.69;;;26.44;62.07
64602;BME280;68371;42.630;23.192;2023-07-20T08:31:35;92166.97;;;26.49;60.81
64602;BME280;68371;42.630;23.192;2023-07-20T08:34:01;92168.19;;;26.48;61.88
64602;BME280;68371;42.630;23.192;2023-07-20T08:36:28;92184.78;;;26.56;61.59
64602;BME280;68371;42.630;23.192;2023-07-20T08:38:55;92175.63;;;26.44;59.75
64602;BME280;68371;42.630;23.192;2023-07-20T08:41:24;92178.88;;;26.39;60.48
64602;BME280;68371;42.630;23.192;2023-07-20T08:43:54;92181.75;;;26.45;58.38
64602;BME280;68371;42.630;23.192;2023-07-20T08:46:22;92181.69;;;26.35;55.38
64602;BME280;68371;42.630;23.192;2023-07-20T08:48:50;92182.69;;;26.51;56.46
64602;BME280;68371;42.630;23.192;2023-07-20T08:51:17;92179.19;;;26.41;55.14
64602;BME280;68371;42.630;23.192;2023-07-20T08:53:47;92180.44;;;26.49;55.54
64602;BME280;68371;42.630;23.192;2023-07-20T08:56:16;92171.03;;;26.54;54.78
64602;BME280;68371;42.630;23.192;2023-07-20T08:58:45;92170.28;;;26.53;53.24
64602;BME280;68371;42.630;23.192;2023-07-20T09:01:13;92166.03;;;26.65;53.68
64602;BME280;68371;42.630;23.192;2023-07-20T09:03:41;92170.69;;;26.74;54.05
64602;BME280;68371;42.630;23.192;2023-07-20T09:06:08;92179.09;;;26.76;53.89
64602;BME280;68371;42.630;23.192;2023-07-20T09:08:38;92181.81;;;26.85;54.73
64602;BME280;68371;42.630;23.192;2023-07-20T09:11:04;92165.69;;;26.94;54.74
64602;BME280;68371;42.630;23.192;2023-07-20T09:13:32;92173.31;;;26.96;53.25
64602;BME280;68371;42.630;23.192;2023-07-20T09:16:00;92175.72;;;26.94;54.67
64602;BME280;68371;42.630;23.192;2023-07-20T09:18:30;92161.66;;;26.99;52.64
64602;BME280;68371;42.630;23.192;2023-07-20T09:21:04;92162.84;;;26.98;51.49
64602;BME280;68371;42.630;23.192;2023-07-20T09:23:32;92169.28;;;27.01;51.40
64602;BME280;68371;42.630;23.192;2023-07-20T09:25:59;92152.38;;;27.00;49.56
64602;BME280;68371;42.630;23.192;2023-07-20T09:28:26;92172.75;;;27.01;49.89
64602;BME280;68371;42.630;23.192;2023-07-20T09:30:54;92170.81;;;27.11;49.92
64602;BME280;68371;42.630;23.192;2023-07-20T09:33:24;92180.84;;;27.01;51.23
64602;BME280;68371;42.630;23.192;2023-07-20T09:35:51;92174.88;;;27.15;49.58
64602;BME280;68371;42.630;23.192;2023-07-20T09:38:18;92173.31;;;27.36;50.19
64602;BME280;68371;42.630;23.192;2023-07-20T09:40:45;92171.25;;;27.50;49.64
64602;BME280;68371;42.630;23.192;2023-07-20T09:43:11;92177.84;;;27.67;52.48
64602;BME280;68371;42.630;23.192;2023-07-20T09:45:42;92174.09;;;27.83;49.11
64602;BME280;68371;42.630;23.192;2023-07-20T09:48:10;92172.31;;;27.89;49.18
64602;BME280;68371;42.630;23.192;2023-07-20T09:50:42;92165.72;;;28.00;48.76
64602;BME280;68371;42.630;23.192;2023-07-20T09:53:11;92155.94;;;28.30;50.04
64602;BME280;68371;42.630;23.192;2023-07-20T09:55:40;92140.91;;;28.38;47.00
64602;BME280;68371;42.630;23.192;2023-07-20T09:58:08;92149.00;;;28.47;46.64
64602;BME280;68371;42.630;23.192;2023-07-20T10:00:36;92145.06;;;28.48;47.26
64602;BME280;68371;42.630;23.192;2023-07-20T10:03:04;92148.00;;;28.17;45.12
64602;BME280;68371;42.630;23.192;2023-07-20T10:05:33;92145.59;;;28.19;46.12
64602;BME280;68371;42.630;23.192;2023-07-20T10:08:02;92146.50;;;28.25;45.43
64602;BME280;68371;42.630;23.192;2023-07-20T10:10:32;92154.28;;;28.23;45.92
64602;BME280;68371;42.630;23.192;2023-07-20T10:13:00;92156.41;;;28.19;46.32
64602;BME280;68371;42.630;23.192;2023-07-20T10:15:30;92163.28;;;28.29;46.90
64602;BME280;68371;42.630;23.192;2023-07-20T10:18:02;92167.94;;;28.20;47.80
64602;BME280;68371;42.630;23.192;2023-07-20T10:20:32;92166.75;;;28.21;46.31
64602;BME280;68371;42.630;23.192;2023-07-20T10:23:02;92177.69;;;28.26;45.90
64602;BME280;68371;42.630;23.192;2023-07-20T10:25:29;92170.66;;;28.20;45.13
64602;BME280;68371;42.630;23.192;2023-07-20T10:27:57;92168.38;;;28.27;45.38
64602;BME280;68371;42.630;23.192;2023-07-20T10:30:25;92165.25;;;28.20;44.66
64602;BME280;68371;42.630;23.192;2023-07-20T10:32:52;92166.09;;;28.44;45.15
64602;BME280;68371;42.630;23.192;2023-07-20T10:35:19;92167.41;;;28.67;45.08
64602;BME280;68371;42.630;23.192;2023-07-20T10:37:47;92160.66;;;28.72;41.12
64602;BME280;68371;42.630;23.192;2023-07-20T10:40:27;92146.16;;;28.93;43.23
64602;BME280;68371;42.630;23.192;2023-07-20T10:42:59;92120.66;;;29.09;43.56
64602;BME280;68371;42.630;23.192;2023-07-20T10:45:37;92098.97;;;28.94;43.62
64602;BME280;68371;42.630;23.192;2023-07-20T10:48:09;92110.88;;;28.88;43.32
64602;BME280;68371;42.630;23.192;2023-07-20T10:50:39;92120.94;;;28.45;41.86
64602;BME280;68371;42.630;23.192;2023-07-20T10:53:16;92116.13;;;28.49;44.40
64602;BME280;68371;42.630;23.192;2023-07-20T10:55:44;92097.53;;;28.51;45.51
64602;BME280;68371;42.630;23.192;2023-07-20T10:58:12;92069.00;;;28.41;44.32
64602;BME280;68371;42.630;23.192;2023-07-20T11:00:57;92080.66;;;28.23;46.94
64602;BME280;68371;42.630;23.192;2023-07-20T11:03:33;92082.41;;;28.26;49.05
64602;BME280;68371;42.630;23.192;2023-07-20T11:06:29;92096.19;;;28.37;49.47
64602;BME280;68371;42.630;23.192;2023-07-20T11:09:04;92100.97;;;28.51;45.52
64602;BME280;68371;42.630;23.192;2023-07-20T11:11:34;92093.81;;;28.72;49.97
64602;BME280;68371;42.630;23.192;2023-07-20T11:14:01;92085.97;;;28.84;49.33
64602;BME280;68371;42.630;23.192;2023-07-20T11:16:33;92087.00;;;29.10;48.74
64602;BME280;68371;42.630;23.192;2023-07-20T11:19:01;92079.25;;;29.27;45.42
64602;BME280;68371;42.630;23.192;2023-07-20T11:21:28;92076.53;;;29.51;46.39
64602;BME280;68371;42.630;23.192;2023-07-20T11:23:56;92084.47;;;29.55;45.84
64602;BME280;68371;42.630;23.192;2023-07-20T11:26:23;92086.47;;;29.69;43.44
64602;BME280;68371;42.630;23.192;2023-07-20T11:28:51;92074.72;;;29.72;41.41
64602;BME280;68371;42.630;23.192;2023-07-20T11:31:18;92074.84;;;30.08;45.03
64602;BME280;68371;42.630;23.192;2023-07-20T11:33:44;92070.38;;;30.34;41.76
64602;BME280;68371;42.630;23.192;2023-07-20T11:36:11;92083.53;;;30.57;39.92
64602;BME280;68371;42.630;23.192;2023-07-20T11:38:40;92063.97;;;30.67;42.26
64602;BME280;68371;42.630;23.192;2023-07-20T11:41:08;92062.81;;;30.89;40.12
64602;BME280;68371;42.630;23.192;2023-07-20T11:43:34;92067.28;;;30.77;38.40
64602;BME280;68371;42.630;23.192;2023-07-20T11:46:05;92068.97;;;30.89;37.93
64602;BME280;68371;42.630;23.192;2023-07-20T11:48:32;92064.44;;;31.22;41.14
64602;BME280;68371;42.630;23.192;2023-07-20T11:50:59;92062.81;;;31.30;38.17
64602;BME280;68371;42.630;23.192;2023-07-20T11:53:26;92060.72;;;31.60;39.66
64602;BME280;68371;42.630;23.192;2023-07-20T11:55:53;92059.72;;;31.84;38.54
64602;BME280;68371;42.630;23.192;2023-07-20T11:58:20;92054.59;;;32.12;34.97
64602;BME280;68371;42.630;23.192;2023-07-20T12:00:47;92044.69;;;32.41;35.92
64602;BME280;68371;42.630;23.192;2023-07-20T12:03:15;92046.25;;;32.53;34.86
64602;BME280;68371;42.630;23.192;2023-07-20T12:05:42;92041.28;;;32.83;36.50
64602;BME280;68371;42.630;23.192;2023-07-20T12:08:09;92040.53;;;32.88;36.31
64602;BME280;68371;42.630;23.192;2023-07-20T12:10:39;92044.16;;;33.17;35.56
64602;BME280;68371;42.630;23.192;2023-07-20T12:13:10;92039.31;;;32.89;34.50
64602;BME280;68371;42.630;23.192;2023-07-20T12:15:37;92039.78;;;32.82;34.21
64602;BME280;68371;42.630;23.192;2023-07-20T12:18:04;92035.53;;;33.19;35.23
64602;BME280;68371;42.630;23.192;2023-07-20T12:20:34;92035.84;;;33.32;33.81
64602;BME280;68371;42.630;23.192;2023-07-20T12:23:04;92039.38;;;33.55;33.56
64602;BME280;68371;42.630;23.192;2023-07-20T12:25:36;92027.56;;;33.92;33.42
64602;BME280;68371;42.630;23.192;2023-07-20T12:28:05;92029.13;;;34.27;31.76
64602;BME280;68371;42.630;23.192;2023-07-20T12:30:31;92032.81;;;34.18;28.87
64602;BME280;68371;42.630;23.192;2023-07-20T12:32:59;92024.41;;;34.33;31.36
64602;BME280;68371;42.630;23.192;2023-07-20T12:35:26;92029.31;;;34.63;28.90
64602;BME280;68371;42.630;23.192;2023-07-20T12:37:54;92030.81;;;34.86;29.99
64602;BME280;68371;42.630;23.192;2023-07-20T12:40:21;92013.94;;;34.88;28.62
64602;BME280;68371;42.630;23.192;2023-07-20T12:42:47;92020.06;;;35.22;28.38
64602;BME280;68371;42.630;23.192;2023-07-20T12:45:15;92026.72;;;35.27;27.39
64602;BME280;68371;42.630;23.192;2023-07-20T12:47:42;92030.75;;;35.20;26.69
64602;BME280;68371;42.630;23.192;2023-07-20T12:50:09;92025.44;;;35.39;27.81
64602;BME280;68371;42.630;23.192;2023-07-20T12:52:37;92017.03;;;35.31;27.08
64602;BME280;68371;42.630;23.192;2023-07-20T12:55:08;92027.31;;;35.61;26.56
64602;BME280;68371;42.630;23.192;2023-07-20T12:57:36;91960.91;;;35.36;26.53